WZZ9DM EDJA-LYBE
Flight info
| Callsign | WZZ9DM |
|---|---|
| Flight time | 1h 16m |
| Altitude | 35000 |
| Route | KPT4B KPT Z999 BEMKI T23 BIRGI DCT NAKUM DCT BEDOX DCT LAKIK DCT RIGMU |
| Aircraft | A321/M-SDE3FGHIRWY/LB1 |
Departure
| Time | 2026-05-06 12:41 |
|---|---|
| Airport | Memmingen Allgau Airport (EDJA) |
Arrival
| Time | 2026-05-06 13:57 |
|---|---|
| Airport | Belgrade Nikola Tesla Airport (LYBE) |
| Time | Latitude | Longitude | Altitude | Speed | Heading |
|---|---|---|---|---|---|
| 2026-05-06 12:14 | 47.98865 | 10.23235 | 2080 ft | 0 kts | 49° |
| 2026-05-06 12:15 | 47.98891 | 10.23331 | 2080 ft | 0 kts | 49° |
| 2026-05-06 12:35 | 47.98892 | 10.23333 | 2080 ft | 0 kts | 53° |
| 2026-05-06 12:35 | 47.98892 | 10.23336 | 2080 ft | 1 kts | 73° |
| 2026-05-06 12:36 | 47.98885 | 10.23346 | 2098 ft | 1 kts | 135° |
| 2026-05-06 12:36 | 47.98876 | 10.23357 | 2105 ft | 4 kts | 138° |
| 2026-05-06 12:36 | 47.98862 | 10.23384 | 2081 ft | 4 kts | 118° |
| 2026-05-06 12:36 | 47.98873 | 10.23472 | 2079 ft | 12 kts | 71° |
| 2026-05-06 12:37 | 47.98906 | 10.23615 | 2073 ft | 16 kts | 73° |
| 2026-05-06 12:37 | 47.98896 | 10.23714 | 2076 ft | 8 kts | 121° |
| 2026-05-06 12:37 | 47.98855 | 10.23757 | 2076 ft | 8 kts | 152° |
| 2026-05-06 12:37 | 47.98793 | 10.23740 | 2076 ft | 12 kts | 238° |
| 2026-05-06 12:38 | 47.98741 | 10.23601 | 2078 ft | 19 kts | 243° |
| 2026-05-06 12:38 | 47.98660 | 10.23390 | 2077 ft | 28 kts | 239° |
| 2026-05-06 12:38 | 47.98552 | 10.23122 | 2078 ft | 31 kts | 239° |
| 2026-05-06 12:38 | 47.98444 | 10.22852 | 2084 ft | 30 kts | 239° |
| 2026-05-06 12:39 | 47.98349 | 10.22627 | 2087 ft | 15 kts | 227° |
| 2026-05-06 12:39 | 47.98332 | 10.22551 | 2087 ft | 2 kts | 333° |
| 2026-05-06 12:39 | 47.98339 | 10.22566 | 2087 ft | 2 kts | 58° |
| 2026-05-06 12:39 | 47.98351 | 10.22612 | 2087 ft | 6 kts | 65° |
| 2026-05-06 12:40 | 47.98360 | 10.22636 | 2087 ft | 0 kts | 60° |
| 2026-05-06 12:40 | 47.98398 | 10.22734 | 2086 ft | 41 kts | 59° |
| 2026-05-06 12:40 | 47.98667 | 10.23412 | 2079 ft | 108 kts | 59° |
| 2026-05-06 12:40 | 47.99148 | 10.24621 | 2073 ft | 162 kts | 59° |
| 2026-05-06 12:41 | 47.99748 | 10.26167 | 2529 ft | 173 kts | 60° |
| 2026-05-06 12:41 | 48.00333 | 10.27716 | 3352 ft | 171 kts | 60° |
| 2026-05-06 12:41 | 48.00932 | 10.29241 | 3955 ft | 173 kts | 58° |
| 2026-05-06 12:41 | 48.01585 | 10.30865 | 4145 ft | 191 kts | 59° |
| 2026-05-06 12:42 | 48.02302 | 10.32633 | 4326 ft | 209 kts | 58° |
| 2026-05-06 12:42 | 48.03107 | 10.34590 | 4438 ft | 233 kts | 58° |
| 2026-05-06 12:42 | 48.03789 | 10.36836 | 4900 ft | 241 kts | 81° |
| 2026-05-06 12:42 | 48.03598 | 10.39272 | 5500 ft | 239 kts | 119° |
| 2026-05-06 12:43 | 48.02484 | 10.41060 | 6125 ft | 238 kts | 149° |
| 2026-05-06 12:43 | 48.00995 | 10.42140 | 6752 ft | 238 kts | 160° |
| 2026-05-06 12:43 | 47.99426 | 10.42933 | 7400 ft | 238 kts | 170° |
| 2026-05-06 12:43 | 47.97776 | 10.42997 | 7991 ft | 240 kts | 189° |
| 2026-05-06 12:44 | 47.96095 | 10.42332 | 8208 ft | 260 kts | 197° |
| 2026-05-06 12:44 | 47.94322 | 10.41575 | 8681 ft | 269 kts | 194° |
| 2026-05-06 12:44 | 47.92500 | 10.40913 | 9361 ft | 270 kts | 193° |
| 2026-05-06 12:44 | 47.90663 | 10.40297 | 9981 ft | 274 kts | 193° |
| 2026-05-06 12:45 | 47.88727 | 10.39662 | 10103 ft | 295 kts | 193° |
| 2026-05-06 12:45 | 47.86676 | 10.38992 | 10437 ft | 306 kts | 193° |
| 2026-05-06 12:45 | 47.82476 | 10.37611 | 11648 ft | 311 kts | 194° |
| 2026-05-06 12:46 | 47.80361 | 10.36912 | 12283 ft | 312 kts | 194° |
| 2026-05-06 12:46 | 47.78237 | 10.36211 | 12950 ft | 313 kts | 194° |
| 2026-05-06 12:46 | 47.76104 | 10.35504 | 13597 ft | 315 kts | 194° |
| 2026-05-06 12:46 | 47.73965 | 10.34801 | 14156 ft | 316 kts | 193° |
| 2026-05-06 12:47 | 47.71788 | 10.34200 | 14692 ft | 319 kts | 191° |
| 2026-05-06 12:47 | 47.69585 | 10.33677 | 15204 ft | 322 kts | 191° |
| 2026-05-06 12:47 | 47.67364 | 10.33182 | 15717 ft | 325 kts | 191° |
| 2026-05-06 12:47 | 47.65149 | 10.32694 | 16229 ft | 327 kts | 191° |
| 2026-05-06 12:48 | 47.62863 | 10.32182 | 16748 ft | 329 kts | 191° |
| 2026-05-06 12:48 | 47.60606 | 10.31786 | 17225 ft | 334 kts | 182° |
| 2026-05-06 12:48 | 47.58295 | 10.32379 | 17683 ft | 344 kts | 163° |
| 2026-05-06 12:48 | 47.56215 | 10.34229 | 18138 ft | 358 kts | 142° |
| 2026-05-06 12:49 | 47.54691 | 10.37213 | 18550 ft | 374 kts | 120° |
| 2026-05-06 12:49 | 47.53836 | 10.40903 | 18973 ft | 382 kts | 112° |
| 2026-05-06 12:49 | 47.53085 | 10.44690 | 19397 ft | 385 kts | 111° |
| 2026-05-06 12:49 | 47.52338 | 10.48506 | 19834 ft | 388 kts | 112° |
| 2026-05-06 12:50 | 47.51583 | 10.52361 | 20249 ft | 391 kts | 112° |
| 2026-05-06 12:50 | 47.50819 | 10.56237 | 20681 ft | 394 kts | 112° |
| 2026-05-06 12:50 | 47.50042 | 10.60145 | 21097 ft | 398 kts | 112° |
| 2026-05-06 12:50 | 47.49253 | 10.64080 | 21553 ft | 401 kts | 112° |
| 2026-05-06 12:51 | 47.48450 | 10.68052 | 21957 ft | 405 kts | 112° |
| 2026-05-06 12:51 | 47.47639 | 10.72049 | 22354 ft | 408 kts | 112° |
| 2026-05-06 12:51 | 47.46850 | 10.76093 | 22771 ft | 413 kts | 109° |
| 2026-05-06 12:51 | 47.46304 | 10.80296 | 23184 ft | 419 kts | 106° |
| 2026-05-06 12:52 | 47.45779 | 10.84548 | 23503 ft | 422 kts | 106° |
| 2026-05-06 12:52 | 47.45247 | 10.88829 | 23800 ft | 424 kts | 106° |
| 2026-05-06 12:52 | 47.44710 | 10.93117 | 24105 ft | 426 kts | 107° |
| 2026-05-06 12:52 | 47.44165 | 10.97442 | 24358 ft | 430 kts | 106° |
| 2026-05-06 12:53 | 47.43612 | 11.01796 | 24552 ft | 433 kts | 107° |
| 2026-05-06 12:53 | 47.43051 | 11.06173 | 24864 ft | 434 kts | 107° |
| 2026-05-06 12:53 | 47.42486 | 11.10566 | 25127 ft | 438 kts | 107° |
| 2026-05-06 12:53 | 47.41917 | 11.14990 | 25407 ft | 440 kts | 107° |
| 2026-05-06 12:54 | 47.41343 | 11.19439 | 25747 ft | 442 kts | 107° |
| 2026-05-06 12:54 | 47.40768 | 11.23908 | 26075 ft | 444 kts | 107° |
| 2026-05-06 12:54 | 47.40198 | 11.28369 | 26375 ft | 444 kts | 107° |
| 2026-05-06 12:54 | 47.39621 | 11.32859 | 26607 ft | 447 kts | 107° |
| 2026-05-06 12:55 | 47.39033 | 11.37382 | 26947 ft | 450 kts | 107° |
| 2026-05-06 12:55 | 47.38464 | 11.41933 | 27271 ft | 453 kts | 105° |
| 2026-05-06 12:55 | 47.38013 | 11.46565 | 27565 ft | 458 kts | 103° |
| 2026-05-06 12:55 | 47.37666 | 11.51255 | 27887 ft | 462 kts | 102° |
| 2026-05-06 12:56 | 47.37375 | 11.55987 | 28211 ft | 464 kts | 101° |
| 2026-05-06 12:56 | 47.37100 | 11.60679 | 28520 ft | 467 kts | 101° |
| 2026-05-06 12:56 | 47.36805 | 11.65449 | 28731 ft | 469 kts | 102° |
| 2026-05-06 12:56 | 47.36476 | 11.70305 | 28954 ft | 470 kts | 102° |
| 2026-05-06 12:57 | 47.36127 | 11.75045 | 29194 ft | 473 kts | 102° |
| 2026-05-06 12:57 | 47.35752 | 11.79866 | 29445 ft | 475 kts | 102° |
| 2026-05-06 12:57 | 47.35370 | 11.84710 | 29722 ft | 475 kts | 102° |
| 2026-05-06 12:57 | 47.34977 | 11.89562 | 29927 ft | 477 kts | 105° |
| 2026-05-06 12:58 | 47.34270 | 11.94304 | 30137 ft | 471 kts | 114° |
| 2026-05-06 12:58 | 47.33187 | 11.98906 | 30337 ft | 469 kts | 117° |
| 2026-05-06 12:58 | 47.32091 | 12.03377 | 30560 ft | 471 kts | 117° |
| 2026-05-06 12:58 | 47.30978 | 12.07925 | 30758 ft | 472 kts | 117° |
| 2026-05-06 12:59 | 47.29862 | 12.12485 | 30957 ft | 474 kts | 117° |
| 2026-05-06 12:59 | 47.28744 | 12.17057 | 31186 ft | 475 kts | 117° |
| 2026-05-06 12:59 | 47.27625 | 12.21630 | 31529 ft | 474 kts | 117° |
| 2026-05-06 12:59 | 47.26508 | 12.26189 | 31882 ft | 473 kts | 117° |
| 2026-05-06 13:00 | 47.25390 | 12.30737 | 32197 ft | 472 kts | 118° |
| 2026-05-06 13:00 | 47.24268 | 12.35269 | 32496 ft | 471 kts | 118° |
| 2026-05-06 13:00 | 47.23142 | 12.39804 | 32755 ft | 471 kts | 118° |
| 2026-05-06 13:00 | 47.22014 | 12.44330 | 33053 ft | 471 kts | 118° |
| 2026-05-06 13:01 | 47.20890 | 12.48833 | 33366 ft | 468 kts | 118° |
| 2026-05-06 13:01 | 47.19767 | 12.53322 | 33571 ft | 468 kts | 118° |
| 2026-05-06 13:01 | 47.18640 | 12.57822 | 33790 ft | 469 kts | 118° |
| 2026-05-06 13:01 | 47.17511 | 12.62328 | 34098 ft | 469 kts | 118° |
| 2026-05-06 13:02 | 47.16386 | 12.66813 | 34432 ft | 468 kts | 118° |
| 2026-05-06 13:02 | 47.15258 | 12.71299 | 34639 ft | 468 kts | 118° |
| 2026-05-06 13:02 | 47.14125 | 12.75784 | 34782 ft | 468 kts | 118° |
| 2026-05-06 13:03 | 47.11909 | 12.84578 | 34828 ft | 454 kts | 118° |
| 2026-05-06 13:03 | 47.09704 | 12.93256 | 34828 ft | 454 kts | 118° |
| 2026-05-06 13:04 | 47.07865 | 13.00469 | 34849 ft | 454 kts | 118° |
| 2026-05-06 13:04 | 47.05285 | 13.10555 | 34862 ft | 454 kts | 118° |
| 2026-05-06 13:05 | 47.03068 | 13.19199 | 34857 ft | 451 kts | 118° |
| 2026-05-06 13:05 | 47.00852 | 13.27799 | 34868 ft | 452 kts | 117° |
| 2026-05-06 13:06 | 46.98976 | 13.35051 | 34882 ft | 455 kts | 117° |
| 2026-05-06 13:06 | 46.96750 | 13.43633 | 34884 ft | 454 kts | 117° |
| 2026-05-06 13:07 | 46.94504 | 13.52258 | 34903 ft | 454 kts | 118° |
| 2026-05-06 13:07 | 46.92245 | 13.60906 | 34872 ft | 455 kts | 117° |
| 2026-05-06 13:08 | 46.89981 | 13.69537 | 34871 ft | 454 kts | 117° |
| 2026-05-06 13:08 | 46.87712 | 13.78161 | 34882 ft | 455 kts | 117° |
| 2026-05-06 13:09 | 46.85431 | 13.86797 | 34889 ft | 455 kts | 117° |
| 2026-05-06 13:09 | 46.83149 | 13.95418 | 34895 ft | 455 kts | 117° |
| 2026-05-06 13:10 | 46.80861 | 14.04021 | 34866 ft | 454 kts | 117° |
| 2026-05-06 13:10 | 46.78562 | 14.12619 | 34887 ft | 454 kts | 117° |
| 2026-05-06 13:11 | 46.76257 | 14.21195 | 34888 ft | 454 kts | 117° |
| 2026-05-06 13:11 | 46.73947 | 14.29773 | 34897 ft | 454 kts | 117° |
| 2026-05-06 13:12 | 46.71608 | 14.38314 | 34871 ft | 453 kts | 118° |
| 2026-05-06 13:12 | 46.69103 | 14.46653 | 34880 ft | 452 kts | 120° |
| 2026-05-06 13:13 | 46.66501 | 14.54970 | 34894 ft | 451 kts | 120° |
| 2026-05-06 13:13 | 46.63926 | 14.63288 | 34899 ft | 451 kts | 120° |
| 2026-05-06 13:14 | 46.61389 | 14.71618 | 34904 ft | 450 kts | 120° |
| 2026-05-06 13:14 | 46.58852 | 14.79922 | 34906 ft | 449 kts | 120° |
| 2026-05-06 13:15 | 46.56297 | 14.88216 | 34919 ft | 450 kts | 120° |
| 2026-05-06 13:15 | 46.53733 | 14.96507 | 34919 ft | 450 kts | 120° |
| 2026-05-06 13:16 | 46.51162 | 15.04777 | 34917 ft | 450 kts | 120° |
| 2026-05-06 13:16 | 46.48578 | 15.13047 | 34903 ft | 450 kts | 120° |
| 2026-05-06 13:17 | 46.45993 | 15.21322 | 34911 ft | 450 kts | 120° |
| 2026-05-06 13:17 | 46.43409 | 15.29598 | 34913 ft | 450 kts | 120° |
| 2026-05-06 13:18 | 46.40817 | 15.37861 | 34917 ft | 451 kts | 120° |
| 2026-05-06 13:18 | 46.38232 | 15.46061 | 34902 ft | 451 kts | 120° |
| 2026-05-06 13:19 | 46.35618 | 15.54318 | 34904 ft | 451 kts | 120° |
| 2026-05-06 13:19 | 46.32997 | 15.62578 | 34907 ft | 452 kts | 120° |
| 2026-05-06 13:20 | 46.30368 | 15.70839 | 34911 ft | 452 kts | 120° |
| 2026-05-06 13:20 | 46.27735 | 15.79091 | 34919 ft | 452 kts | 120° |
| 2026-05-06 13:21 | 46.25153 | 15.87364 | 34934 ft | 452 kts | 117° |
| 2026-05-06 13:21 | 46.22808 | 15.95801 | 34941 ft | 453 kts | 116° |
| 2026-05-06 13:22 | 46.20529 | 16.04264 | 34937 ft | 452 kts | 116° |
| 2026-05-06 13:22 | 46.18199 | 16.12678 | 34928 ft | 451 kts | 117° |
| 2026-05-06 13:23 | 46.15818 | 16.21051 | 34919 ft | 451 kts | 117° |
| 2026-05-06 13:23 | 46.13430 | 16.29399 | 34922 ft | 451 kts | 117° |
| 2026-05-06 13:24 | 46.11045 | 16.37762 | 34932 ft | 451 kts | 117° |
| 2026-05-06 13:24 | 46.08661 | 16.46115 | 34930 ft | 451 kts | 117° |
| 2026-05-06 13:25 | 46.06285 | 16.54395 | 34915 ft | 451 kts | 117° |
| 2026-05-06 13:25 | 46.03888 | 16.62741 | 34915 ft | 451 kts | 117° |
| 2026-05-06 13:26 | 46.01485 | 16.71079 | 34925 ft | 451 kts | 117° |
| 2026-05-06 13:26 | 45.99067 | 16.79417 | 34925 ft | 451 kts | 117° |
| 2026-05-06 13:27 | 45.96644 | 16.87741 | 34910 ft | 452 kts | 117° |
| 2026-05-06 13:27 | 45.94216 | 16.96065 | 34912 ft | 452 kts | 117° |
| 2026-05-06 13:28 | 45.91784 | 17.04392 | 34912 ft | 452 kts | 117° |
| 2026-05-06 13:28 | 45.89343 | 17.12713 | 34915 ft | 452 kts | 117° |
| 2026-05-06 13:29 | 45.86886 | 17.21019 | 34892 ft | 452 kts | 117° |
| 2026-05-06 13:29 | 45.84431 | 17.29318 | 34903 ft | 452 kts | 117° |
| 2026-05-06 13:30 | 45.81970 | 17.37620 | 34909 ft | 452 kts | 117° |
| 2026-05-06 13:30 | 45.79511 | 17.45919 | 34915 ft | 452 kts | 117° |
| 2026-05-06 13:31 | 45.77045 | 17.54213 | 34908 ft | 452 kts | 117° |
| 2026-05-06 13:31 | 45.74556 | 17.62493 | 34907 ft | 453 kts | 117° |
| 2026-05-06 13:32 | 45.72055 | 17.70767 | 34906 ft | 453 kts | 117° |
| 2026-05-06 13:32 | 45.69561 | 17.79042 | 34897 ft | 454 kts | 117° |
| 2026-05-06 13:32 | 45.68311 | 17.83191 | 34643 ft | 454 kts | 117° |
| 2026-05-06 13:33 | 45.67062 | 17.87336 | 34303 ft | 453 kts | 117° |
| 2026-05-06 13:33 | 45.65812 | 17.91469 | 33725 ft | 453 kts | 117° |
| 2026-05-06 13:33 | 45.64562 | 17.95585 | 33233 ft | 450 kts | 117° |
| 2026-05-06 13:33 | 45.63318 | 17.99665 | 32741 ft | 447 kts | 117° |
| 2026-05-06 13:34 | 45.62092 | 18.03673 | 32242 ft | 445 kts | 117° |
| 2026-05-06 13:34 | 45.60865 | 18.07721 | 31756 ft | 444 kts | 114° |
| 2026-05-06 13:34 | 45.59931 | 18.11917 | 31288 ft | 444 kts | 105° |
| 2026-05-06 13:34 | 45.59317 | 18.16233 | 30813 ft | 443 kts | 103° |
| 2026-05-06 13:35 | 45.58715 | 18.20536 | 30338 ft | 441 kts | 103° |
| 2026-05-06 13:35 | 45.58110 | 18.24814 | 29837 ft | 439 kts | 103° |
| 2026-05-06 13:35 | 45.57498 | 18.29070 | 29362 ft | 436 kts | 103° |
| 2026-05-06 13:35 | 45.56888 | 18.33288 | 28899 ft | 432 kts | 103° |
| 2026-05-06 13:36 | 45.56281 | 18.37474 | 28439 ft | 429 kts | 104° |
| 2026-05-06 13:36 | 45.55676 | 18.41629 | 27984 ft | 426 kts | 104° |
| 2026-05-06 13:36 | 45.55077 | 18.45754 | 27541 ft | 423 kts | 104° |
| 2026-05-06 13:36 | 45.54480 | 18.49855 | 27106 ft | 421 kts | 104° |
| 2026-05-06 13:37 | 45.53886 | 18.53927 | 26695 ft | 419 kts | 104° |
| 2026-05-06 13:37 | 45.53295 | 18.57985 | 26255 ft | 416 kts | 104° |
| 2026-05-06 13:37 | 45.52708 | 18.62017 | 25830 ft | 415 kts | 103° |
| 2026-05-06 13:37 | 45.52122 | 18.66034 | 25423 ft | 412 kts | 103° |
| 2026-05-06 13:38 | 45.51536 | 18.70025 | 25017 ft | 410 kts | 103° |
| 2026-05-06 13:38 | 45.50949 | 18.73998 | 24611 ft | 408 kts | 103° |
| 2026-05-06 13:38 | 45.50364 | 18.77947 | 24207 ft | 407 kts | 103° |
| 2026-05-06 13:38 | 45.49781 | 18.81882 | 23798 ft | 405 kts | 103° |
| 2026-05-06 13:39 | 45.49200 | 18.85798 | 23351 ft | 404 kts | 103° |
| 2026-05-06 13:39 | 45.48619 | 18.89701 | 22904 ft | 401 kts | 103° |
| 2026-05-06 13:39 | 45.48041 | 18.93567 | 22473 ft | 397 kts | 103° |
| 2026-05-06 13:39 | 45.47468 | 18.97402 | 22041 ft | 394 kts | 103° |
| 2026-05-06 13:40 | 45.46898 | 19.01210 | 21604 ft | 391 kts | 103° |
| 2026-05-06 13:40 | 45.46333 | 19.04985 | 21166 ft | 389 kts | 103° |
| 2026-05-06 13:40 | 45.45772 | 19.08741 | 20729 ft | 386 kts | 103° |
| 2026-05-06 13:40 | 45.45213 | 19.12464 | 20278 ft | 384 kts | 103° |
| 2026-05-06 13:41 | 45.44653 | 19.16165 | 19846 ft | 381 kts | 103° |
| 2026-05-06 13:41 | 45.44093 | 19.19841 | 19409 ft | 379 kts | 104° |
| 2026-05-06 13:41 | 45.43532 | 19.23503 | 18954 ft | 377 kts | 104° |
| 2026-05-06 13:41 | 45.42973 | 19.27144 | 18526 ft | 376 kts | 104° |
| 2026-05-06 13:42 | 45.42425 | 19.30721 | 18087 ft | 374 kts | 104° |
| 2026-05-06 13:42 | 45.41872 | 19.34330 | 17619 ft | 372 kts | 104° |
| 2026-05-06 13:42 | 45.41324 | 19.37907 | 17182 ft | 368 kts | 104° |
| 2026-05-06 13:42 | 45.40548 | 19.41341 | 16711 ft | 363 kts | 117° |
| 2026-05-06 13:43 | 45.39048 | 19.44218 | 15744 ft | 367 kts | 141° |
| 2026-05-06 13:43 | 45.36956 | 19.46276 | 15061 ft | 362 kts | 154° |
| 2026-05-06 13:43 | 45.34746 | 19.47903 | 14453 ft | 353 kts | 157° |
| 2026-05-06 13:43 | 45.32584 | 19.49451 | 14000 ft | 343 kts | 155° |
| 2026-05-06 13:44 | 45.30527 | 19.51077 | 13582 ft | 336 kts | 152° |
| 2026-05-06 13:44 | 45.28555 | 19.52827 | 13161 ft | 332 kts | 150° |
| 2026-05-06 13:44 | 45.26653 | 19.54666 | 12753 ft | 330 kts | 148° |
| 2026-05-06 13:44 | 45.24792 | 19.56555 | 12359 ft | 326 kts | 147° |
| 2026-05-06 13:45 | 45.23001 | 19.58416 | 12110 ft | 310 kts | 147° |
| 2026-05-06 13:45 | 45.19713 | 19.61848 | 11750 ft | 281 kts | 147° |
| 2026-05-06 13:45 | 45.18146 | 19.63462 | 11319 ft | 276 kts | 148° |
| 2026-05-06 13:46 | 45.16593 | 19.65048 | 10846 ft | 274 kts | 148° |
| 2026-05-06 13:46 | 45.15050 | 19.66617 | 10414 ft | 272 kts | 148° |
| 2026-05-06 13:46 | 45.13527 | 19.68167 | 10144 ft | 267 kts | 148° |
| 2026-05-06 13:46 | 45.12003 | 19.69713 | 10018 ft | 271 kts | 148° |
| 2026-05-06 13:47 | 45.10472 | 19.71263 | 9851 ft | 272 kts | 148° |
| 2026-05-06 13:47 | 45.08913 | 19.72839 | 9245 ft | 275 kts | 148° |
| 2026-05-06 13:47 | 45.07385 | 19.74389 | 8972 ft | 266 kts | 148° |
| 2026-05-06 13:47 | 45.06012 | 19.76134 | 8837 ft | 269 kts | 134° |
| 2026-05-06 13:48 | 45.04924 | 19.78335 | 8395 ft | 275 kts | 124° |
| 2026-05-06 13:48 | 45.03927 | 19.80631 | 8079 ft | 272 kts | 124° |
| 2026-05-06 13:48 | 45.02930 | 19.82919 | 7690 ft | 274 kts | 124° |
| 2026-05-06 13:48 | 45.01940 | 19.85182 | 7478 ft | 269 kts | 125° |
| 2026-05-06 13:49 | 45.00955 | 19.87430 | 7164 ft | 268 kts | 125° |
| 2026-05-06 13:49 | 44.99974 | 19.89662 | 6775 ft | 267 kts | 124° |
| 2026-05-06 13:49 | 44.98997 | 19.91845 | 6311 ft | 265 kts | 128° |
| 2026-05-06 13:49 | 44.97944 | 19.93964 | 5865 ft | 262 kts | 126° |
| 2026-05-06 13:50 | 44.96963 | 19.96115 | 5472 ft | 258 kts | 124° |
| 2026-05-06 13:50 | 44.96061 | 19.98189 | 5341 ft | 240 kts | 123° |
| 2026-05-06 13:50 | 44.95202 | 20.00157 | 5040 ft | 231 kts | 124° |
| 2026-05-06 13:50 | 44.94374 | 20.02044 | 4749 ft | 222 kts | 125° |
| 2026-05-06 13:51 | 44.93579 | 20.03856 | 4475 ft | 210 kts | 124° |
| 2026-05-06 13:51 | 44.92843 | 20.05532 | 4189 ft | 192 kts | 123° |
| 2026-05-06 13:51 | 44.92172 | 20.07061 | 3974 ft | 174 kts | 125° |
| 2026-05-06 13:51 | 44.91559 | 20.08454 | 3749 ft | 159 kts | 123° |
| 2026-05-06 13:52 | 44.91001 | 20.09723 | 3522 ft | 145 kts | 124° |
| 2026-05-06 13:52 | 44.90488 | 20.10888 | 3348 ft | 137 kts | 126° |
| 2026-05-06 13:52 | 44.89987 | 20.12026 | 3163 ft | 135 kts | 125° |
| 2026-05-06 13:52 | 44.89493 | 20.13147 | 3001 ft | 134 kts | 126° |
| 2026-05-06 13:53 | 44.89001 | 20.14263 | 2822 ft | 134 kts | 126° |
| 2026-05-06 13:53 | 44.88507 | 20.15383 | 2654 ft | 133 kts | 126° |
| 2026-05-06 13:53 | 44.88019 | 20.16491 | 2480 ft | 132 kts | 127° |
| 2026-05-06 13:53 | 44.87527 | 20.17605 | 2304 ft | 134 kts | 124° |
| 2026-05-06 13:54 | 44.87038 | 20.18714 | 2114 ft | 133 kts | 125° |
| 2026-05-06 13:54 | 44.86549 | 20.19822 | 1955 ft | 133 kts | 127° |
| 2026-05-06 13:54 | 44.86055 | 20.20941 | 1786 ft | 137 kts | 126° |
| 2026-05-06 13:54 | 44.85557 | 20.22067 | 1610 ft | 133 kts | 126° |
| 2026-05-06 13:55 | 44.85076 | 20.23157 | 1416 ft | 133 kts | 126° |
| 2026-05-06 13:55 | 44.84578 | 20.24283 | 1259 ft | 134 kts | 125° |
| 2026-05-06 13:55 | 44.84091 | 20.25384 | 1055 ft | 135 kts | 126° |
| 2026-05-06 13:55 | 44.83596 | 20.26502 | 909 ft | 137 kts | 123° |
| 2026-05-06 13:56 | 44.83097 | 20.27630 | 699 ft | 135 kts | 126° |
| 2026-05-06 13:56 | 44.82610 | 20.28765 | 539 ft | 136 kts | 127° |
| 2026-05-06 13:56 | 44.82116 | 20.29882 | 347 ft | 131 kts | 126° |
| 2026-05-06 13:56 | 44.81686 | 20.30832 | 331 ft | 94 kts | 121° |
| 2026-05-06 13:57 | 44.81403 | 20.31461 | 335 ft | 60 kts | 122° |
| 2026-05-06 13:57 | 44.81264 | 20.31778 | 333 ft | 53 kts | 121° |
| 2026-05-06 13:57 | 44.81108 | 20.32142 | 338 ft | 22 kts | 122° |
| 2026-05-06 13:57 | 44.81002 | 20.32222 | 339 ft | 15 kts | 220° |
| 2026-05-06 13:58 | 44.81006 | 20.32091 | 338 ft | 15 kts | 302° |
| 2026-05-06 13:58 | 44.81063 | 20.31965 | 336 ft | 16 kts | 303° |
| 2026-05-06 13:58 | 44.81124 | 20.31832 | 338 ft | 17 kts | 302° |
| 2026-05-06 13:58 | 44.81187 | 20.31689 | 335 ft | 18 kts | 302° |
| 2026-05-06 13:59 | 44.81253 | 20.31539 | 333 ft | 19 kts | 302° |
| 2026-05-06 13:59 | 44.81330 | 20.31365 | 333 ft | 25 kts | 302° |
| 2026-05-06 13:59 | 44.81427 | 20.31142 | 333 ft | 27 kts | 301° |
| 2026-05-06 13:59 | 44.81530 | 20.30915 | 334 ft | 28 kts | 302° |
| 2026-05-06 14:00 | 44.81634 | 20.30681 | 332 ft | 28 kts | 302° |
| 2026-05-06 14:00 | 44.81741 | 20.30442 | 329 ft | 29 kts | 303° |
| 2026-05-06 14:00 | 44.81849 | 20.30196 | 329 ft | 30 kts | 302° |
| 2026-05-06 14:00 | 44.81959 | 20.29948 | 327 ft | 30 kts | 302° |
| 2026-05-06 14:01 | 44.82070 | 20.29695 | 327 ft | 30 kts | 302° |
| 2026-05-06 14:01 | 44.82105 | 20.29533 | 327 ft | 15 kts | 236° |
| 2026-05-06 14:01 | 44.82119 | 20.29402 | 326 ft | 15 kts | 301° |
| 2026-05-06 14:01 | 44.82161 | 20.29307 | 325 ft | 7 kts | 301° |
| 2026-05-06 14:02 | 44.82168 | 20.29282 | 326 ft | 2 kts | 285° |
| 2026-05-06 14:02 | 44.82168 | 20.29262 | 328 ft | 3 kts | 272° |
| 2026-05-06 14:02 | 44.82154 | 20.29232 | 325 ft | 4 kts | 216° |
| 2026-05-06 14:02 | 44.82143 | 20.29215 | 326 ft | 2 kts | 231° |
| 2026-05-06 14:03 | 44.82134 | 20.29196 | 325 ft | 0 kts | 238° |
| 2026-05-06 14:03 | 44.82134 | 20.29195 | 326 ft | 0 kts | 238° |